Time;durP1;ratioP1;P1;durP2;ratioP2;P2;SDS_P1;SDS_P2;PMS_P1;PMS_P2;Temp;Humidity;BMP_temperature;BMP_pressure;BME280_temperature;BME280_humidity;BME280_pressure;Samples;Min_cycle;Max_cycle;Signal;HPM_P1;HPM_P2
2021/08/01 00:00:16;;;;;;;11.85;6.70;;;;;;;19.20;64.25;98857.66;4704736;30;20052;-60
2021/08/01 00:02:43;;;;;;;10.40;6.78;;;;;;;19.18;64.27;98856.94;4703963;30;20135;-60
2021/08/01 00:05:10;;;;;;;10.35;6.20;;;;;;;19.19;64.23;98853.34;4716792;30;20064;-60
2021/08/01 00:07:37;;;;;;;15.20;6.20;;;;;;;19.17;64.35;98857.03;4721374;30;20064;-59
2021/08/01 00:10:05;;;;;;;8.38;5.43;;;;;;;19.13;64.64;98864.38;4709609;30;20077;-60
2021/08/01 00:12:31;;;;;;;9.75;6.03;;;;;;;19.14;64.25;98862.59;4716391;30;20863;-60
2021/08/01 00:14:57;;;;;;;10.60;6.35;;;;;;;19.13;64.30;98861.75;4698147;30;20188;-59
2021/08/01 00:17:23;;;;;;;9.20;5.78;;;;;;;19.09;64.52;98862.97;4700570;30;20049;-59
2021/08/01 00:19:49;;;;;;;10.27;6.22;;;;;;;19.07;64.55;98862.25;4703797;30;20048;-59
2021/08/01 00:22:15;;;;;;;14.00;6.32;;;;;;;19.05;64.54;98861.56;4710307;30;20057;-59
2021/08/01 00:24:41;;;;;;;11.85;6.47;;;;;;;19.00;64.73;98861.91;4699556;30;20056;-60
2021/08/01 00:27:06;;;;;;;8.77;5.70;;;;;;;18.98;64.63;98866.47;4700269;30;20046;-61
2021/08/01 00:29:32;;;;;;;9.30;5.65;;;;;;;19.00;64.80;98868.97;4706554;30;20053;-59
2021/08/01 00:31:59;;;;;;;10.40;6.38;;;;;;;18.77;64.81;98830.50;4686805;30;20471;-60
2021/08/01 00:34:25;;;;;;;7.82;5.80;;;;;;;18.84;64.96;98844.88;4714867;30;20644;-60
2021/08/01 00:36:51;;;;;;;12.00;6.47;;;;;;;18.93;65.04;98871.28;4716824;30;20091;-60
2021/08/01 00:39:17;;;;;;;11.00;6.03;;;;;;;18.92;65.19;98872.25;4710978;30;20045;-59
2021/08/01 00:41:43;;;;;;;14.77;7.15;;;;;;;18.82;65.20;98865.22;4699560;30;20041;-60
2021/08/01 00:44:08;;;;;;;14.98;6.85;;;;;;;18.87;65.57;98878.84;4700162;30;20515;-60
2021/08/01 00:46:34;;;;;;;10.50;5.80;;;;;;;18.85;65.38;98884.22;4699233;30;20056;-60
2021/08/01 00:49:01;;;;;;;14.60;5.97;;;;;;;18.84;65.62;98887.81;4705583;30;20048;-59
2021/08/01 00:51:31;;;;;;;12.40;5.70;;;;;;;18.70;65.84;98871.47;4709978;30;20214;-60
2021/08/01 00:54:01;;;;;;;11.85;5.97;;;;;;;18.79;65.62;98884.72;4697500;30;20100;-61
2021/08/01 00:56:27;;;;;;;9.52;5.88;;;;;;;18.78;65.79;98882.22;4701835;30;20068;-61
2021/08/01 00:58:52;;;;;;;11.38;6.28;;;;;;;18.78;65.87;98884.88;4714206;30;20053;-61
2021/08/01 01:01:27;;;;;;;13.25;5.97;;;;;;;18.72;66.34;98883.56;4698590;30;20041;-61
2021/08/01 01:04:03;;;;;;;12.30;5.78;;;;;;;18.66;66.51;98884.03;4709739;30;20132;-60
2021/08/01 01:06:52;;;;;;;8.85;6.13;;;;;;;18.65;66.67;98894.69;4692334;30;20148;-60
2021/08/01 01:09:38;;;;;;;11.57;6.15;;;;;;;18.63;66.91;98894.84;4697610;30;20044;-60
2021/08/01 01:12:45;;;;;;;12.40;6.35;;;;;;;18.58;67.03;98889.06;4649405;30;20055;-61
2021/08/01 01:15:31;;;;;;;14.30;6.03;;;;;;;18.40;67.38;98866.81;4664649;30;20511;-60
2021/08/01 01:17:59;;;;;;;7.05;5.00;;;;;;;18.41;67.50;98877.25;4706033;30;20053;-60
2021/08/01 01:20:41;;;;;;;7.35;5.63;;;;;;;18.50;67.94;98901.97;4714393;30;20442;-60
2021/08/01 01:23:38;;;;;;;6.15;4.75;;;;;;;18.47;67.94;98900.44;4714478;30;20044;-59
2021/08/01 01:26:34;;;;;;;10.43;5.30;;;;;;;18.46;67.91;98896.13;4695795;30;20143;-60
2021/08/01 01:29:29;;;;;;;11.65;6.22;;;;;;;18.45;67.95;98901.50;4700725;30;20057;-59
2021/08/01 01:32:01;;;;;;;10.65;5.03;;;;;;;18.44;68.08;98905.09;4715161;30;20060;-59
2021/08/01 01:34:37;;;;;;;11.52;5.50;;;;;;;18.44;68.18;98899.84;4699871;30;20053;-60
2021/08/01 01:37:05;;;;;;;8.25;5.13;;;;;;;18.43;68.06;98908.69;4715579;30;20556;-60
2021/08/01 01:39:36;;;;;;;9.77;4.97;;;;;;;18.43;68.25;98896.34;4685038;30;20060;-60
2021/08/01 01:42:10;;;;;;;9.98;5.45;;;;;;;18.42;68.08;98899.94;4731449;30;20565;-60
2021/08/01 01:44:46;;;;;;;7.50;4.90;;;;;;;18.46;68.12;98905.81;4712021;30;20513;-61
2021/08/01 01:47:14;;;;;;;8.77;4.82;;;;;;;18.45;68.03;98918.16;4703659;30;20045;-60
2021/08/01 01:49:42;;;;;;;10.18;4.70;;;;;;;18.35;68.19;98890.03;4697557;30;20259;-61
2021/08/01 01:52:13;;;;;;;8.48;5.07;;;;;;;18.43;68.41;98913.94;4702315;30;20068;-60
2021/08/01 01:54:43;;;;;;;10.27;4.80;;;;;;;18.43;68.30;98919.22;4684176;30;20049;-60
2021/08/01 01:57:10;;;;;;;11.30;5.18;;;;;;;18.43;68.44;98917.41;4692724;30;20049;-60
2021/08/01 01:59:38;;;;;;;9.35;5.07;;;;;;;18.43;68.29;98922.69;4698759;30;20506;-60
2021/08/01 02:02:07;;;;;;;9.32;5.07;;;;;;;18.45;68.35;98920.78;4698243;30;20546;-59
2021/08/01 02:04:34;;;;;;;9.18;4.93;;;;;;;18.46;68.27;98925.09;4705271;30;20523;-59
2021/08/01 02:07:38;;;;;;;10.50;5.25;;;;;;;18.46;68.55;98919.00;4678040;30;20058;-59
2021/08/01 02:10:53;;;;;;;9.02;4.93;;;;;;;18.46;68.65;98924.25;4666513;30;20562;-59
2021/08/01 02:13:23;;;;;;;11.63;4.72;;;;;;;18.44;68.64;98921.72;4687213;30;20084;-60
2021/08/01 02:15:56;;;;;;;9.40;5.55;;;;;;;18.45;68.79;98910.25;4685083;30;20056;-61
2021/08/01 02:18:29;;;;;;;8.07;4.78;;;;;;;18.45;68.77;98922.56;4699665;30;20434;-60
2021/08/01 02:20:55;;;;;;;7.65;4.90;;;;;;;18.44;68.60;98927.00;4699159;30;20049;-61
2021/08/01 02:23:31;;;;;;;6.82;4.95;;;;;;;18.46;68.75;98925.09;4714920;30;20052;-60
2021/08/01 02:25:58;;;;;;;6.75;4.63;;;;;;;18.48;68.74;98923.16;4698733;30;20051;-61
2021/08/01 02:28:25;;;;;;;7.97;5.13;;;;;;;18.51;68.61;98927.34;4699336;30;20107;-61
2021/08/01 02:30:54;;;;;;;8.77;5.65;;;;;;;18.55;68.55;98924.38;4713339;30;20048;-60
2021/08/01 02:33:26;;;;;;;12.20;6.30;;;;;;;18.60;68.45;98924.84;4713791;30;20048;-61
2021/08/01 02:36:01;;;;;;;6.82;5.45;;;;;;;18.52;68.27;98910.59;4699745;30;20132;-60
2021/08/01 02:38:31;;;;;;;13.23;6.45;;;;;;;18.71;67.97;98928.44;4681692;30;20079;-61
2021/08/01 02:41:02;;;;;;;15.90;5.90;;;;;;;18.63;67.72;98902.72;4681420;30;20060;-60
2021/08/01 02:43:30;;;;;;;9.88;5.35;;;;;;;18.85;67.56;98931.63;4692089;30;20052;-60
2021/08/01 02:45:56;;;;;;;8.18;5.28;;;;;;;18.75;67.35;98912.25;4716325;30;20564;-62
2021/08/01 02:48:24;;;;;;;11.20;5.10;;;;;;;18.88;67.33;98934.03;4698686;30;20056;-59
2021/08/01 02:50:57;;;;;;;7.03;5.10;;;;;;;18.93;67.52;98928.41;4681485;30;20057;-60
2021/08/01 02:53:24;;;;;;;8.25;5.13;;;;;;;18.94;67.30;98935.34;4684426;30;20049;-60
2021/08/01 02:55:52;;;;;;;9.15;5.78;;;;;;;18.93;67.23;98931.88;4695770;30;20173;-60
2021/08/01 02:58:18;;;;;;;13.18;5.20;;;;;;;18.97;67.19;98937.72;4695652;30;20059;-59
2021/08/01 03:00:50;;;;;;;7.88;4.60;;;;;;;18.98;67.06;98940.25;4682290;30;20049;-59
2021/08/01 03:03:17;;;;;;;10.05;5.13;;;;;;;19.01;67.11;98936.50;4681530;30;20077;-61
2021/08/01 03:08:34;;;;;;;6.53;4.70;;;;;;;19.12;66.83;98939.13;4701495;30;20068;-60
2021/08/01 03:11:01;;;;;;;8.20;4.80;;;;;;;19.17;66.82;98930.84;4712342;30;20059;-61
2021/08/01 03:13:27;;;;;;;8.65;4.90;;;;;;;19.17;66.82;98934.31;4710306;30;20053;-59
2021/08/01 03:15:54;;;;;;;6.95;4.90;;;;;;;19.17;66.72;98938.75;4713195;30;20510;-59
2021/08/01 03:18:20;;;;;;;9.10;4.85;;;;;;;19.17;66.54;98939.56;4715912;30;20110;-60
2021/08/01 03:20:47;;;;;;;8.50;4.43;;;;;;;19.23;66.34;98935.59;4714250;30;20208;-59
2021/08/01 03:23:22;;;;;;;9.52;5.18;;;;;;;19.29;65.97;98943.84;4709426;30;20046;-60
2021/08/01 03:26:23;;;;;;;11.20;4.85;;;;;;;19.38;65.82;98939.63;4677712;30;20153;-60
2021/08/01 03:28:49;;;;;;;9.93;4.57;;;;;;;19.23;65.54;98914.53;4698312;30;20087;-60
2021/08/01 03:31:16;;;;;;;9.48;4.50;;;;;;;19.50;65.50;98951.84;4701435;30;20045;-60
2021/08/01 03:33:46;;;;;;;8.70;4.43;;;;;;;19.53;65.32;98948.09;4717016;30;20061;-62
2021/08/01 03:36:12;;;;;;;7.70;5.13;;;;;;;19.54;64.90;98944.50;4702323;30;20127;-60
2021/08/01 03:38:56;;;;;;;8.70;4.50;;;;;;;19.57;64.48;98949.53;4717895;30;20048;-60
2021/08/01 03:41:39;;;;;;;10.50;4.20;;;;;;;19.58;64.28;98946.75;4713600;30;20071;-60
2021/08/01 03:44:10;;;;;;;7.38;4.38;;;;;;;19.63;63.96;98949.00;4716200;30;20544;-61
2021/08/01 03:46:36;;;;;;;13.75;4.80;;;;;;;19.71;63.91;98957.97;4711248;30;20049;-60
2021/08/01 03:49:02;;;;;;;9.15;4.28;;;;;;;19.79;63.64;98950.22;4706454;30;20059;-61
2021/08/01 03:51:27;;;;;;;8.52;4.65;;;;;;;19.91;63.34;98956.28;4701384;30;20059;-60
2021/08/01 03:53:53;;;;;;;9.23;4.00;;;;;;;20.02;62.75;98966.78;4717334;30;20536;-60
2021/08/01 03:56:19;;;;;;;6.65;4.53;;;;;;;20.06;62.31;98956.78;4715847;30;20056;-61
2021/08/01 03:58:45;;;;;;;10.88;4.47;;;;;;;20.11;61.73;98954.59;4715416;30;20049;-59
2021/08/01 04:01:13;;;;;;;8.75;4.03;;;;;;;20.20;61.55;98953.84;4714538;30;20533;-61
2021/08/01 04:03:39;;;;;;;9.90;3.83;;;;;;;20.24;61.08;98956.09;4717170;30;20049;-59
2021/08/01 04:06:05;;;;;;;8.90;4.60;;;;;;;20.32;61.02;98959.88;4717123;30;20057;-60
2021/08/01 04:08:31;;;;;;;7.63;3.92;;;;;;;20.22;60.64;98936.88;4714771;30;20127;-61
2021/08/01 04:10:57;;;;;;;8.13;4.10;;;;;;;20.40;60.39;98958.28;4716090;30;20053;-61
2021/08/01 04:13:23;;;;;;;9.50;4.15;;;;;;;20.42;59.90;98969.50;4710269;30;20057;-60
2021/08/01 04:15:49;;;;;;;7.88;3.90;;;;;;;20.43;60.03;98973.00;4710055;30;20049;-61
2021/08/01 04:18:14;;;;;;;7.65;4.22;;;;;;;20.47;59.92;98969.97;4723873;30;20068;-60
2021/08/01 04:20:40;;;;;;;7.78;4.07;;;;;;;20.28;60.22;98935.53;4725866;30;20060;-60
2021/08/01 04:23:06;;;;;;;7.90;3.83;;;;;;;20.57;59.96;98970.00;4701026;30;20083;-61
2021/08/01 04:25:32;;;;;;;7.18;4.18;;;;;;;20.61;59.79;98974.91;4715253;30;20048;-60
2021/08/01 04:27:58;;;;;;;6.88;3.67;;;;;;;20.67;59.32;98970.91;4715194;30;20426;-61
2021/08/01 04:30:24;;;;;;;7.35;3.97;;;;;;;20.71;59.20;98969.66;4715141;30;20511;-62
2021/08/01 04:32:50;;;;;;;8.20;4.07;;;;;;;20.78;58.68;98970.75;4708595;30;20113;-60
2021/08/01 04:35:16;;;;;;;6.88;3.92;;;;;;;20.85;58.81;98971.91;4699136;30;20127;-60
2021/08/01 04:37:42;;;;;;;6.60;4.15;;;;;;;20.84;58.65;98954.38;4698900;30;20555;-60
2021/08/01 04:40:08;;;;;;;6.47;3.83;;;;;;;20.99;58.64;98970.69;4699634;30;20056;-60
2021/08/01 04:42:34;;;;;;;7.18;3.70;;;;;;;21.07;58.48;98968.22;4687913;30;20123;-60
2021/08/01 04:44:59;;;;;;;10.07;3.90;;;;;;;21.13;58.04;98965.88;4707365;30;20136;-59
2021/08/01 04:47:25;;;;;;;7.85;3.70;;;;;;;21.16;57.57;98963.94;4715589;30;20049;-59
2021/08/01 04:49:52;;;;;;;6.72;3.58;;;;;;;21.13;57.08;98968.50;4711932;30;20049;-60
2021/08/01 04:52:19;;;;;;;9.65;4.15;;;;;;;20.99;57.08;98931.88;4699813;30;20599;-60
2021/08/01 04:54:45;;;;;;;12.02;4.20;;;;;;;21.18;57.38;98956.72;4697719;30;20076;-61
2021/08/01 04:57:11;;;;;;;8.00;4.13;;;;;;;21.24;57.11;98954.38;4707167;30;20426;-60
2021/08/01 04:59:37;;;;;;;10.80;4.03;;;;;;;21.29;56.58;98960.06;4707005;30;20049;-61
2021/08/01 05:02:03;;;;;;;9.25;4.15;;;;;;;21.37;56.56;98964.66;4698382;30;20056;-60
2021/08/01 05:04:29;;;;;;;9.57;4.18;;;;;;;21.42;56.69;98959.78;4712297;30;20191;-61
2021/08/01 05:06:55;;;;;;;8.18;3.90;;;;;;;21.43;56.79;98949.06;4698612;30;20148;-60
2021/08/01 05:09:21;;;;;;;8.27;4.18;;;;;;;21.56;56.10;98954.91;4703601;30;20045;-60
2021/08/01 05:11:47;;;;;;;7.68;4.10;;;;;;;21.66;56.27;98957.56;4715423;30;20584;-59
2021/08/01 05:14:13;;;;;;;11.80;4.30;;;;;;;21.76;56.37;98960.22;4716365;30;20056;-60
2021/08/01 05:16:40;;;;;;;7.57;4.28;;;;;;;21.85;56.03;98959.34;4716165;30;20057;-60
2021/08/01 05:19:05;;;;;;;11.85;4.38;;;;;;;21.90;55.78;98950.00;4703077;30;20057;-59
2021/08/01 05:21:31;;;;;;;6.35;3.90;;;;;;;21.99;55.61;98956.28;4720382;30;20048;-60
2021/08/01 05:23:57;;;;;;;7.28;4.03;;;;;;;22.09;55.29;98943.88;4700087;30;20063;-61
2021/08/01 05:26:23;;;;;;;6.93;3.67;;;;;;;22.21;55.19;98939.25;4715739;30;20053;-61
2021/08/01 05:28:48;;;;;;;7.25;3.78;;;;;;;22.34;54.70;98940.59;4714124;30;20116;-61
2021/08/01 05:31:14;;;;;;;4.88;3.80;;;;;;;22.51;54.16;98936.34;4714040;30;20076;-61
2021/08/01 05:33:40;;;;;;;9.70;4.13;;;;;;;22.50;53.23;98926.75;4704499;30;20049;-62
2021/08/01 05:36:10;;;;;;;7.28;3.85;;;;;;;22.78;52.29;98940.84;4699966;30;20053;-61
2021/08/01 05:38:37;;;;;;;9.68;3.70;;;;;;;23.00;51.87;98944.91;4714242;30;20056;-59
2021/08/01 05:41:03;;;;;;;8.48;3.95;;;;;;;23.25;51.69;98949.47;4713668;30;20072;-59
2021/08/01 05:43:29;;;;;;;6.32;4.30;;;;;;;23.32;51.44;98949.72;4712212;30;20049;-61
2021/08/01 05:45:55;;;;;;;7.95;4.43;;;;;;;23.34;50.97;98951.25;4703902;30;20057;-62
2021/08/01 05:48:21;;;;;;;10.88;4.30;;;;;;;23.34;50.91;98950.41;4710669;30;20072;-61
2021/08/01 05:50:47;;;;;;;9.02;4.00;;;;;;;23.32;50.74;98961.16;4712678;30;20052;-61
2021/08/01 05:53:13;;;;;;;9.43;3.65;;;;;;;23.30;50.58;98952.50;4726464;30;20522;-61
2021/08/01 05:55:38;;;;;;;9.55;3.88;;;;;;;23.32;50.06;98960.31;4732642;30;20103;-61
2021/08/01 05:58:04;;;;;;;10.32;3.92;;;;;;;23.35;49.98;98952.03;4719664;30;20430;-62
2021/08/01 06:00:30;;;;;;;6.50;3.75;;;;;;;23.44;50.67;98952.00;4710168;30;20045;-60
2021/08/01 06:02:56;;;;;;;5.95;3.63;;;;;;;23.56;49.09;98949.94;4715124;30;20092;-60
2021/08/01 06:05:21;;;;;;;8.40;3.80;;;;;;;23.65;49.14;98941.09;4699592;30;20063;-61
2021/08/01 06:07:47;;;;;;;11.32;4.50;;;;;;;23.77;47.74;98946.97;4694941;30;20061;-60
2021/08/01 06:10:13;;;;;;;10.40;3.55;;;;;;;24.01;47.86;98952.47;4700205;30;20053;-61
2021/08/01 06:12:39;;;;;;;7.30;3.13;;;;;;;24.32;45.79;98960.84;4698513;30;20056;-60
2021/08/01 06:15:05;;;;;;;7.22;3.05;;;;;;;24.69;45.44;98974.66;4715046;30;20458;-61
2021/08/01 06:17:31;;;;;;;7.95;3.15;;;;;;;25.01;44.28;98986.44;4703306;30;20049;-61
2021/08/01 06:19:57;;;;;;;5.38;2.70;;;;;;;25.12;43.50;98972.84;4696952;30;20108;-62
2021/08/01 06:22:24;;;;;;;6.70;3.28;;;;;;;25.39;43.74;98969.91;4709214;30;20059;-62
2021/08/01 06:24:50;;;;;;;6.32;3.35;;;;;;;25.87;43.14;98981.63;4721318;30;20049;-61
2021/08/01 06:27:16;;;;;;;7.03;3.28;;;;;;;25.96;41.90;98959.31;4703505;30;20045;-61
2021/08/01 06:29:42;;;;;;;6.25;3.42;;;;;;;26.05;41.63;98951.16;4711953;30;20063;-62
2021/08/01 06:32:08;;;;;;;11.70;3.22;;;;;;;26.38;41.16;98980.44;4711961;30;20057;-62
2021/08/01 06:34:34;;;;;;;6.50;2.95;;;;;;;26.49;40.52;98974.72;4703232;30;20054;-60
2021/08/01 06:36:59;;;;;;;7.35;3.30;;;;;;;26.65;39.64;98968.50;4707486;30;20063;-61
2021/08/01 06:39:25;;;;;;;7.07;3.33;;;;;;;26.71;39.62;98960.66;4711547;30;20114;-62
2021/08/01 06:41:51;;;;;;;7.85;3.00;;;;;;;27.05;39.47;98963.03;4710984;30;20045;-62
2021/08/01 06:44:17;;;;;;;5.63;2.97;;;;;;;27.75;38.93;98953.06;4700667;30;20137;-62
2021/08/01 06:46:43;;;;;;;10.80;3.55;;;;;;;28.65;36.93;98958.38;4697300;30;20091;-62
2021/08/01 06:49:08;;;;;;;11.38;3.90;;;;;;;29.26;35.52;98950.88;4698119;30;20453;-62
2021/08/01 06:51:34;;;;;;;6.43;2.90;;;;;;;29.48;34.74;98968.66;4697607;30;20049;-61
2021/08/01 06:54:00;;;;;;;11.02;3.38;;;;;;;30.04;33.35;98969.63;4696854;30;20108;-62
2021/08/01 06:56:26;;;;;;;10.05;3.40;;;;;;;30.12;32.48;98963.28;4726468;30;20406;-63
2021/08/01 06:58:55;;;;;;;6.97;2.72;;;;;;;30.29;32.65;98965.47;4700383;30;20782;-62
2021/08/01 07:01:23;;;;;;;9.48;3.35;;;;;;;30.77;31.37;98964.75;4708113;30;20430;-63
2021/08/01 07:03:49;;;;;;;7.32;2.92;;;;;;;30.49;30.80;98959.44;4697011;30;20119;-63
2021/08/01 07:06:15;;;;;;;3.45;2.53;;;;;;;29.64;30.92;98968.41;4703625;30;20049;-61
2021/08/01 07:08:41;;;;;;;9.25;3.70;;;;;;;29.51;31.93;98967.47;4696368;30;20093;-61
2021/08/01 07:11:07;;;;;;;6.53;2.75;;;;;;;29.60;32.14;98958.28;4712714;30;20145;-62
2021/08/01 07:13:33;;;;;;;6.25;3.10;;;;;;;29.09;32.68;98950.31;4703349;30;20075;-62
2021/08/01 07:16:02;;;;;;;8.52;2.95;;;;;;;28.82;33.54;98946.47;4713130;30;20581;-63
2021/08/01 07:18:28;;;;;;;7.32;2.70;;;;;;;29.10;33.80;98948.47;4712424;30;20574;-65
2021/08/01 07:20:54;;;;;;;10.18;2.80;;;;;;;29.42;33.38;98956.03;4698910;30;20132;-64
2021/08/01 07:23:20;;;;;;;5.75;3.03;;;;;;;29.57;33.01;98956.00;4693537;30;20103;-62
2021/08/01 07:25:46;;;;;;;8.55;2.92;;;;;;;29.56;32.78;98957.84;4713858;30;20059;-62
2021/08/01 07:28:13;;;;;;;8.73;3.35;;;;;;;29.24;33.39;98959.13;4703603;30;20102;-65
2021/08/01 07:30:38;;;;;;;6.40;2.60;;;;;;;29.30;33.72;98947.66;4713014;30;20426;-65
2021/08/01 07:33:04;;;;;;;12.38;3.60;;;;;;;29.44;33.69;98962.03;4699664;30;20519;-63
2021/08/01 07:35:30;;;;;;;6.57;3.53;;;;;;;29.19;33.89;98958.03;4696418;30;20555;-64
2021/08/01 07:37:56;;;;;;;8.57;3.35;;;;;;;28.95;34.72;98967.22;4696829;30;20443;-63
2021/08/01 07:40:22;;;;;;;8.60;2.97;;;;;;;28.67;35.15;98953.66;4696340;30;20640;-63
2021/08/01 07:42:47;;;;;;;8.88;3.30;;;;;;;28.37;35.56;98960.03;4706328;30;20041;-63
2021/08/01 07:45:33;;;;;;;11.77;3.45;;;;;;;28.09;36.18;98954.44;4683953;30;20054;-66
2021/08/01 07:48:00;;;;;;;8.88;3.55;;;;;;;27.79;36.34;98938.31;4685385;30;20099;-63
2021/08/01 07:50:26;;;;;;;4.68;3.05;;;;;;;27.94;36.53;98956.25;4705454;30;20048;-65
2021/08/01 07:52:52;;;;;;;7.10;3.10;;;;;;;27.98;36.63;98949.53;4688559;30;20384;-64
2021/08/01 07:55:18;;;;;;;15.68;3.42;;;;;;;28.04;36.47;98941.63;4703161;30;20049;-64
2021/08/01 07:57:44;;;;;;;10.95;3.55;;;;;;;28.21;36.34;98945.81;4715283;30;20053;-63
2021/08/01 08:00:12;;;;;;;8.15;2.92;;;;;;;28.16;36.08;98944.69;4710524;30;20049;-63
2021/08/01 08:02:44;;;;;;;11.05;3.40;;;;;;;28.39;36.32;98949.97;4702956;30;20045;-64
2021/08/01 08:05:11;;;;;;;10.90;3.47;;;;;;;28.25;36.26;98945.47;4711332;30;20128;-64
2021/08/01 08:07:36;;;;;;;8.27;3.35;;;;;;;28.23;36.94;98948.31;4676359;30;20069;-64
2021/08/01 08:10:03;;;;;;;6.47;3.10;;;;;;;28.07;37.01;98949.25;4703551;30;20068;-64
2021/08/01 08:12:29;;;;;;;15.27;3.70;;;;;;;27.85;37.28;98958.16;4687340;30;20430;-63
2021/08/01 08:14:55;;;;;;;8.50;3.15;;;;;;;27.63;37.43;98956.34;4703705;30;20057;-63
2021/08/01 08:17:21;;;;;;;8.43;3.55;;;;;;;27.58;37.49;98956.06;4707930;30;20522;-61
2021/08/01 08:19:46;;;;;;;7.43;3.28;;;;;;;27.56;37.71;98955.41;4705416;30;20045;-63
2021/08/01 08:22:13;;;;;;;8.73;3.30;;;;;;;27.54;38.06;98960.06;4689083;30;20041;-64
2021/08/01 08:24:38;;;;;;;11.07;3.40;;;;;;;27.45;38.18;98939.75;4699467;30;20503;-62
2021/08/01 08:27:05;;;;;;;9.80;3.15;;;;;;;27.47;38.17;98941.25;4698140;30;20104;-60
2021/08/01 08:29:32;;;;;;;12.50;3.38;;;;;;;27.53;37.77;98955.78;4691442;30;20103;-61
2021/08/01 08:31:58;;;;;;;6.30;3.38;;;;;;;27.55;37.56;98962.56;4704345;30;20144;-63
2021/08/01 08:34:25;;;;;;;11.75;3.38;;;;;;;27.63;37.59;98964.38;4715630;30;20131;-61
2021/08/01 08:36:53;;;;;;;9.75;3.20;;;;;;;27.55;37.49;98948.38;4709511;30;20049;-60
2021/08/01 08:39:21;;;;;;;11.33;3.47;;;;;;;27.63;37.44;98959.03;4708043;30;20070;-64
2021/08/01 08:41:47;;;;;;;5.73;3.00;;;;;;;27.55;37.85;98967.91;4703555;30;20458;-63
2021/08/01 08:44:13;;;;;;;6.70;3.40;;;;;;;27.51;38.29;98969.28;4698966;30;20053;-62
2021/08/01 08:46:40;;;;;;;8.82;3.22;;;;;;;27.39;38.28;98968.00;4706080;30;20048;-64
2021/08/01 08:49:11;;;;;;;4.43;3.33;;;;;;;27.16;38.75;98959.97;4711136;30;20060;-64
2021/08/01 08:51:38;;;;;;;15.63;3.65;;;;;;;27.16;39.15;98959.16;4708819;30;20074;-64
2021/08/01 08:54:10;;;;;;;9.13;3.05;;;;;;;27.23;39.13;98946.75;4703761;30;20234;-66
2021/08/01 08:56:36;;;;;;;8.70;3.42;;;;;;;27.24;38.95;98959.91;4690003;30;20052;-63
2021/08/01 08:59:03;;;;;;;8.52;3.70;;;;;;;27.21;39.10;98946.94;4696119;30;20053;-63
2021/08/01 09:01:29;;;;;;;8.85;3.13;;;;;;;27.09;38.77;98951.00;4698429;30;20089;-64
2021/08/01 09:03:54;;;;;;;7.00;3.33;;;;;;;26.82;39.66;98940.78;4707603;30;20065;-64
2021/08/01 09:06:20;;;;;;;8.40;3.28;;;;;;;26.93;39.52;98943.09;4706256;30;20076;-62
2021/08/01 09:08:46;;;;;;;8.98;3.28;;;;;;;26.81;39.17;98955.94;4707773;30;20534;-62
2021/08/01 09:11:12;;;;;;;3.63;3.03;;;;;;;26.67;39.87;98945.19;4705758;30;20053;-63
2021/08/01 09:13:54;;;;;;;4.45;3.10;;;;;;;26.75;39.79;98953.97;4695613;30;20053;-64
2021/08/01 09:16:22;;;;;;;7.30;3.95;;;;;;;26.72;39.92;98948.16;4692588;30;20442;-63
2021/08/01 09:18:49;;;;;;;9.63;3.58;;;;;;;26.70;39.98;98953.66;4708870;30;20053;-63
2021/08/01 09:21:34;;;;;;;5.68;3.85;;;;;;;26.68;39.96;98942.34;4711394;30;20140;-63
2021/08/01 09:24:00;;;;;;;6.63;3.70;;;;;;;26.71;40.37;98943.81;4685532;30;20076;-63
2021/08/01 09:26:45;;;;;;;11.30;3.90;;;;;;;26.67;40.20;98954.00;4714605;30;20044;-61
2021/08/01 09:29:11;;;;;;;9.00;3.50;;;;;;;26.54;39.81;98967.03;4706795;30;20041;-64
2021/08/01 09:31:37;;;;;;;6.07;3.13;;;;;;;26.35;40.35;98989.59;4714050;30;20056;-64
2021/08/01 09:34:25;;;;;;;6.50;3.13;;;;;;;26.17;40.88;98974.78;4701980;30;21731;-64
2021/08/01 09:37:05;;;;;;;9.27;3.65;;;;;;;26.18;40.89;98969.25;4716822;30;20585;-63
2021/08/01 09:39:41;;;;;;;5.90;3.40;;;;;;;26.15;41.01;98966.94;4698478;30;20534;-61
2021/08/01 09:42:09;;;;;;;6.97;3.40;;;;;;;26.08;41.13;98968.63;4712594;30;20044;-64
2021/08/01 09:44:39;;;;;;;6.78;3.33;;;;;;;26.15;41.20;98967.78;4714905;30;20437;-64
2021/08/01 09:47:05;;;;;;;11.38;3.30;;;;;;;26.19;41.11;98988.75;4686250;30;20718;-64
2021/08/01 09:49:31;;;;;;;6.20;3.22;;;;;;;26.17;41.45;98988.09;4720173;30;20040;-65
2021/08/01 09:52:04;;;;;;;5.53;3.13;;;;;;;26.14;41.67;98990.09;4717587;30;20131;-64
2021/08/01 09:54:45;;;;;;;7.40;3.15;;;;;;;26.10;42.22;99007.44;4714783;30;20084;-62
2021/08/01 09:57:19;;;;;;;7.57;3.10;;;;;;;25.98;42.24;98991.94;4719333;30;20216;-63
2021/08/01 09:59:47;;;;;;;7.65;3.35;;;;;;;25.93;42.94;99004.94;4718459;30;20060;-64
2021/08/01 10:02:13;;;;;;;6.07;3.20;;;;;;;25.86;43.64;99010.06;4723723;30;20127;-63
2021/08/01 10:04:40;;;;;;;7.85;3.60;;;;;;;25.78;44.15;99006.59;4714047;30;20119;-63
2021/08/01 10:07:10;;;;;;;5.85;3.40;;;;;;;25.64;45.33;99008.94;4697603;30;20648;-62
2021/08/01 10:09:43;;;;;;;10.57;3.63;;;;;;;25.64;45.83;99014.25;4701705;30;20053;-64
2021/08/01 10:12:10;;;;;;;7.75;3.97;;;;;;;25.69;46.01;98998.63;4710772;30;20598;-63
2021/08/01 10:14:37;;;;;;;6.13;3.70;;;;;;;25.61;46.92;98998.59;4713375;30;20110;-62
2021/08/01 10:17:04;;;;;;;4.95;3.40;;;;;;;25.52;47.45;98998.72;4695857;30;20485;-63
2021/08/01 10:19:30;;;;;;;5.78;3.85;;;;;;;25.46;47.76;98994.03;4712507;30;20044;-64
2021/08/01 10:21:59;;;;;;;5.50;3.78;;;;;;;25.41;48.62;99017.66;4697204;30;20102;-63
2021/08/01 10:24:47;;;;;;;8.55;4.30;;;;;;;25.30;49.59;98994.84;4710150;30;20057;-63
2021/08/01 10:27:15;;;;;;;10.88;4.03;;;;;;;25.19;50.78;98995.97;4709666;30;20140;-63
2021/08/01 10:29:45;;;;;;;6.57;4.10;;;;;;;24.98;52.12;99000.06;4694134;30;20049;-62
2021/08/01 10:32:12;;;;;;;9.88;4.32;;;;;;;24.84;53.25;99002.31;4693776;30;20060;-62
2021/08/01 10:35:06;;;;;;;5.60;4.10;;;;;;;24.82;53.69;99003.44;4696235;30;21760;-63
2021/08/01 10:37:41;;;;;;;8.80;5.00;;;;;;;24.73;54.44;98997.28;4694561;30;20171;-64
2021/08/01 10:40:08;;;;;;;7.45;4.45;;;;;;;24.72;55.20;98978.81;4707703;30;20138;-62
2021/08/01 10:42:37;;;;;;;7.95;4.35;;;;;;;24.62;55.45;98975.44;4707829;30;20142;-62
2021/08/01 10:45:04;;;;;;;7.85;4.50;;;;;;;24.46;56.62;98958.44;4704793;30;20080;-63
2021/08/01 10:47:30;;;;;;;9.20;5.10;;;;;;;24.20;57.89;98960.28;4708312;30;20056;-64
2021/08/01 10:49:56;;;;;;;7.93;4.90;;;;;;;24.22;58.82;98963.63;4708561;30;20438;-63
2021/08/01 10:52:30;;;;;;;5.22;4.70;;;;;;;24.06;58.61;98958.16;4696308;30;20075;-62
2021/08/01 10:54:56;;;;;;;9.68;5.47;;;;;;;23.95;59.51;98945.13;4705606;30;20064;-64
2021/08/01 10:57:23;;;;;;;6.78;4.80;;;;;;;23.72;58.83;98901.47;4695625;30;20539;-63
2021/08/01 10:59:49;;;;;;;6.80;5.00;;;;;;;23.94;58.65;98914.25;4687382;30;20048;-69
2021/08/01 11:02:19;;;;;;;7.40;5.10;;;;;;;24.05;58.72;98904.22;4708544;30;20049;-63
2021/08/01 11:04:50;;;;;;;6.95;4.90;;;;;;;24.11;58.48;98891.28;4705938;30;20049;-64
2021/08/01 11:07:28;;;;;;;8.60;4.95;;;;;;;24.20;59.11;98896.50;4709603;30;20073;-65
2021/08/01 11:10:06;;;;;;;17.30;5.07;;;;;;;24.12;59.48;98898.28;4708581;30;20107;-64
2021/08/01 11:12:34;;;;;;;7.18;5.07;;;;;;;24.06;59.45;98894.41;4707018;30;20311;-65
2021/08/01 11:15:01;;;;;;;7.32;4.78;;;;;;;24.02;59.47;98874.50;4707586;30;20526;-57
2021/08/01 11:17:51;;;;;;;7.25;5.15;;;;;;;24.02;59.87;98877.16;4692146;30;20049;-60
2021/08/01 11:20:17;;;;;;;7.15;5.30;;;;;;;24.04;59.64;98885.75;4705805;30;20053;-53
2021/08/01 11:22:43;;;;;;;11.25;5.28;;;;;;;24.05;59.95;98882.13;4698731;30;20131;-59
2021/08/01 11:25:31;;;;;;;6.85;5.30;;;;;;;23.96;60.74;98886.56;4699072;30;20116;-61
2021/08/01 11:28:09;;;;;;;6.65;5.20;;;;;;;23.87;61.13;98876.88;4687315;30;20080;-56
2021/08/01 11:30:53;;;;;;;10.65;5.85;;;;;;;23.83;61.48;98888.78;4699373;30;20804;-49
2021/08/01 11:33:35;;;;;;;11.02;7.18;;;;;;;23.85;62.03;98896.59;4700861;30;20049;-58
2021/08/01 11:36:13;;;;;;;6.57;5.38;;;;;;;23.81;61.76;98900.56;4684153;30;20258;-57
2021/08/01 11:38:48;;;;;;;11.52;6.47;;;;;;;23.87;61.86;98900.75;4707976;30;20115;-55
2021/08/01 11:41:30;;;;;;;9.80;6.07;;;;;;;23.95;61.75;98913.28;4672949;30;20661;-55
2021/08/01 11:44:04;;;;;;;8.82;5.70;;;;;;;24.03;61.34;98915.97;4703473;30;20049;-57